createdAt,value
2017-05-10T00:02:17.524Z,65.00
2017-05-10T00:04:45.796Z,65.20
2017-05-10T00:07:14.908Z,65.20
2017-05-10T00:09:43.175Z,65.20
2017-05-10T00:12:11.475Z,64.90
2017-05-10T00:14:39.859Z,64.50
2017-05-10T00:17:08.134Z,64.60
2017-05-10T00:19:36.419Z,65.00
2017-05-10T00:22:04.700Z,64.20
2017-05-10T00:24:33.059Z,64.80
2017-05-10T00:27:01.323Z,64.40
2017-05-10T00:29:29.607Z,64.40
2017-05-10T00:31:57.882Z,64.50
2017-05-10T00:34:26.164Z,65.00
2017-05-10T00:36:54.540Z,64.70
2017-05-10T00:39:22.819Z,64.70
2017-05-10T00:41:51.112Z,65.20
2017-05-10T00:44:19.379Z,65.30
2017-05-10T00:46:47.823Z,65.60
2017-05-10T00:49:16.090Z,65.60
2017-05-10T00:51:44.915Z,66.10
2017-05-10T00:54:13.333Z,65.40
2017-05-10T00:56:41.621Z,65.60
2017-05-10T00:59:10.660Z,65.70
2017-05-10T01:01:38.935Z,65.30
2017-05-10T01:04:07.219Z,65.30
2017-05-10T01:06:35.499Z,65.90
2017-05-10T01:09:03.793Z,65.60
2017-05-10T01:11:32.063Z,65.30
2017-05-10T01:14:00.347Z,65.80
2017-05-10T01:16:28.690Z,65.90
2017-05-10T01:18:56.980Z,65.50
2017-05-10T01:21:25.246Z,65.60
2017-05-10T01:23:53.531Z,65.80
2017-05-10T01:26:21.799Z,65.60
2017-05-10T01:28:50.171Z,66.30
2017-05-10T01:31:18.452Z,65.60
2017-05-10T01:33:46.848Z,65.50
2017-05-10T01:36:15.128Z,65.50
2017-05-10T01:38:43.887Z,65.60
2017-05-10T01:41:12.267Z,65.60
2017-05-10T01:43:40.542Z,65.80
2017-05-10T01:46:08.819Z,66.30
2017-05-10T01:48:37.083Z,66.10
2017-05-10T01:51:05.367Z,66.00
2017-05-10T01:53:33.631Z,66.20
2017-05-10T01:56:01.899Z,66.60
2017-05-10T01:58:30.200Z,66.10
2017-05-10T02:00:58.575Z,66.20
2017-05-10T02:03:26.852Z,66.10
2017-05-10T02:05:55.119Z,66.00
2017-05-10T02:08:23.502Z,66.80
2017-05-10T02:10:51.772Z,67.20
2017-05-10T02:13:20.051Z,66.60
2017-05-10T02:15:48.310Z,66.50
2017-05-10T02:18:16.608Z,66.00
2017-05-10T02:20:44.875Z,65.90
2017-05-10T02:23:13.258Z,65.90
2017-05-10T02:25:41.523Z,66.30
2017-05-10T02:28:09.786Z,66.30
2017-05-10T02:30:38.067Z,66.40
2017-05-10T02:33:06.330Z,66.10
2017-05-10T02:35:35.451Z,66.20
2017-05-10T02:38:03.719Z,66.60
2017-05-10T02:40:31.999Z,66.60
2017-05-10T02:43:00.274Z,66.70
2017-05-10T02:45:28.571Z,66.90
2017-05-10T02:47:56.836Z,67.30
2017-05-10T02:50:25.099Z,67.30
2017-05-10T02:52:53.491Z,67.00
2017-05-10T02:55:21.766Z,66.80
2017-05-10T02:57:50.046Z,66.70
2017-05-10T03:00:18.311Z,66.60
2017-05-10T03:02:46.595Z,66.60
2017-05-10T03:05:14.871Z,66.60
2017-05-10T03:07:43.152Z,67.10
2017-05-10T03:10:11.831Z,66.90
2017-05-10T03:12:40.115Z,66.80
2017-05-10T03:15:08.484Z,66.70
2017-05-10T03:17:36.772Z,67.00
2017-05-10T03:20:05.139Z,67.20
2017-05-10T03:22:33.519Z,68.80
2017-05-10T03:25:01.786Z,67.70
2017-05-10T03:27:30.071Z,67.80
2017-05-10T03:29:58.360Z,67.30
2017-05-10T03:32:26.636Z,67.10
2017-05-10T03:34:54.927Z,67.10
2017-05-10T03:37:23.375Z,67.60
2017-05-10T03:39:51.663Z,67.60
2017-05-10T03:42:19.935Z,67.70
2017-05-10T03:44:48.243Z,67.70
2017-05-10T03:47:16.583Z,67.30
2017-05-10T03:49:44.866Z,67.70
2017-05-10T03:52:13.239Z,67.30
2017-05-10T03:54:41.515Z,67.40
2017-05-10T03:57:09.803Z,67.30
2017-05-10T03:59:38.075Z,67.30
2017-05-10T04:02:06.363Z,67.70
2017-05-10T04:04:34.635Z,67.70
2017-05-10T04:07:02.936Z,68.10
2017-05-10T04:09:31.207Z,67.60
2017-05-10T04:11:59.470Z,67.80
2017-05-10T04:14:27.758Z,67.80
2017-05-10T04:16:56.777Z,67.70
2017-05-10T04:19:25.088Z,67.70
2017-05-10T04:21:53.367Z,67.90
2017-05-10T04:24:21.655Z,67.80
2017-05-10T04:26:50.019Z,67.90
2017-05-10T04:29:18.401Z,67.90
2017-05-10T04:31:46.672Z,68.00
2017-05-10T04:34:14.975Z,68.20
2017-05-10T04:36:43.252Z,67.90
2017-05-10T04:39:11.519Z,67.70
2017-05-10T04:41:39.803Z,67.60
2017-05-10T04:44:08.070Z,68.50
2017-05-10T04:46:36.352Z,68.50
2017-05-10T04:49:04.703Z,68.40
2017-05-10T04:51:32.983Z,68.30
2017-05-10T04:54:01.255Z,68.70
2017-05-10T04:56:29.548Z,69.00
2017-05-10T04:58:57.815Z,68.90
2017-05-10T05:01:26.088Z,69.10
2017-05-10T05:03:54.375Z,69.00
2017-05-10T05:06:22.654Z,68.90
2017-05-10T05:08:50.943Z,69.60
2017-05-10T05:11:19.287Z,69.80
2017-05-10T05:13:47.575Z,70.20
2017-05-10T05:16:15.943Z,70.40
2017-05-10T05:18:44.235Z,69.90
2017-05-10T05:21:12.595Z,69.50
2017-05-10T05:23:41.075Z,69.70
2017-05-10T05:26:09.654Z,69.60
2017-05-10T05:28:37.925Z,69.60
2017-05-10T05:31:06.314Z,69.50
2017-05-10T05:33:34.579Z,69.80
2017-05-10T05:36:02.863Z,70.50
2017-05-10T05:38:31.247Z,70.70
2017-05-10T05:40:59.559Z,70.70
2017-05-10T05:43:27.956Z,71.20
2017-05-10T05:45:56.971Z,71.30
2017-05-10T05:48:25.260Z,71.00
2017-05-10T05:50:53.535Z,70.60
2017-05-10T05:53:21.826Z,69.80
2017-05-10T05:55:50.200Z,69.50
2017-05-10T05:58:18.490Z,69.50
2017-05-10T06:00:46.763Z,69.40
2017-05-10T06:03:15.123Z,68.30
2017-05-10T06:05:43.399Z,68.00
2017-05-10T06:08:11.700Z,67.80
2017-05-10T06:10:40.055Z,67.60
2017-05-10T06:13:08.324Z,68.20
2017-05-10T06:15:36.612Z,66.70
2017-05-10T06:18:04.984Z,66.80
2017-05-10T06:20:33.280Z,66.20
2017-05-10T06:23:01.555Z,65.40
2017-05-10T06:25:29.847Z,65.50
2017-05-10T06:27:58.119Z,64.90
2017-05-10T06:30:26.467Z,65.00
2017-05-10T06:32:54.738Z,64.20
2017-05-10T06:35:23.119Z,62.80
2017-05-10T06:37:51.408Z,59.90
2017-05-10T06:40:19.771Z,57.50
2017-05-10T06:42:48.068Z,59.30
2017-05-10T06:45:16.343Z,61.20
2017-05-10T06:47:44.632Z,61.70
2017-05-10T06:50:12.903Z,62.30
2017-05-10T06:52:41.196Z,60.50
2017-05-10T06:55:10.472Z,59.80
2017-05-10T06:57:38.787Z,60.00
2017-05-10T07:00:07.807Z,60.00
2017-05-10T07:02:36.083Z,59.90
2017-05-10T07:05:04.376Z,59.50
2017-05-10T07:07:32.652Z,57.80
2017-05-10T07:10:00.942Z,56.00
2017-05-10T07:12:29.220Z,57.30
2017-05-10T07:14:57.515Z,55.00
2017-05-10T07:17:26.571Z,55.80
2017-05-10T07:19:54.885Z,55.80
2017-05-10T07:22:23.224Z,54.30
2017-05-10T07:24:52.337Z,54.10
2017-05-10T07:27:23.778Z,55.60
2017-05-10T07:29:52.153Z,56.50
2017-05-10T07:32:20.449Z,56.50
2017-05-10T07:34:48.737Z,54.60
2017-05-10T07:37:17.031Z,53.60
2017-05-10T07:39:46.067Z,53.70
2017-05-10T07:42:14.358Z,53.00
2017-05-10T07:44:42.647Z,53.90
2017-05-10T07:47:10.960Z,54.60
2017-05-10T07:49:39.975Z,54.40
2017-05-10T07:52:08.259Z,54.00
2017-05-10T07:54:36.555Z,54.70
2017-05-10T07:57:04.924Z,55.70
2017-05-10T07:59:33.215Z,56.40
2017-05-10T08:02:01.501Z,54.80
2017-05-10T08:04:30.563Z,55.70
2017-05-10T08:06:59.319Z,55.80
2017-05-10T08:09:27.604Z,56.30
2017-05-10T08:11:55.903Z,55.00
2017-05-10T08:14:24.696Z,52.70
2017-05-10T08:16:53.304Z,51.90
2017-05-10T08:19:21.995Z,50.60
2017-05-10T08:21:50.291Z,50.80
2017-05-10T08:24:19.309Z,51.20
2017-05-10T08:26:47.712Z,52.20
2017-05-10T08:29:15.992Z,52.60
2017-05-10T08:31:44.364Z,52.10
2017-05-10T08:34:12.658Z,51.70
2017-05-10T08:36:40.937Z,52.10
2017-05-10T08:39:09.291Z,51.60
2017-05-10T08:41:37.675Z,51.90
2017-05-10T08:44:05.967Z,49.10
2017-05-10T08:46:34.243Z,49.00
2017-05-10T08:49:02.538Z,46.60
2017-05-10T08:51:30.818Z,48.80
2017-05-10T08:53:59.115Z,49.30
2017-05-10T08:56:27.391Z,50.30
2017-05-10T08:58:56.418Z,49.90
2017-05-10T09:01:24.979Z,50.30
2017-05-10T09:03:53.252Z,50.20
2017-05-10T09:06:21.539Z,48.30
2017-05-10T09:08:49.815Z,48.30
2017-05-10T09:11:19.058Z,48.20
2017-05-10T09:13:47.340Z,47.20
2017-05-10T09:16:15.612Z,48.20
2017-05-10T09:18:43.959Z,46.70
2017-05-10T09:21:12.336Z,45.10
2017-05-10T09:23:40.627Z,43.90
2017-05-10T09:26:08.900Z,44.60
2017-05-10T09:28:37.198Z,45.50
2017-05-10T09:31:05.472Z,46.20
2017-05-10T09:33:33.819Z,45.40
2017-05-10T09:36:02.195Z,44.30
2017-05-10T09:38:30.488Z,46.90
2017-05-10T09:40:59.431Z,43.80
2017-05-10T09:43:27.743Z,43.70
2017-05-10T09:45:56.036Z,42.20
2017-05-10T09:48:24.309Z,44.80
2017-05-10T09:50:52.603Z,45.20
2017-05-10T09:53:20.875Z,43.20
2017-05-10T09:55:49.163Z,41.60
2017-05-10T09:58:17.495Z,42.60
2017-05-10T10:00:46.486Z,42.60
2017-05-10T10:03:14.867Z,41.90
2017-05-10T10:05:43.655Z,40.20
2017-05-10T10:08:11.927Z,37.70
2017-05-10T10:10:40.256Z,39.20
2017-05-10T10:13:09.299Z,37.00
2017-05-10T10:15:37.570Z,32.90
2017-05-10T10:18:06.414Z,32.60
2017-05-10T10:20:35.427Z,27.30
2017-05-10T10:23:03.711Z,25.70
2017-05-10T10:25:31.987Z,25.00
2017-05-10T10:28:00.291Z,25.10
2017-05-10T10:30:28.564Z,23.30
2017-05-10T10:32:56.854Z,24.20
2017-05-10T10:35:25.987Z,22.00
2017-05-10T10:37:55.024Z,21.60
2017-05-10T10:40:23.300Z,22.20
2017-05-10T10:42:51.592Z,21.10
2017-05-10T10:45:19.871Z,19.90
2017-05-10T10:47:48.707Z,20.30
2017-05-10T10:50:17.024Z,20.30
2017-05-10T10:52:45.295Z,19.30
2017-05-10T10:55:13.671Z,20.40
2017-05-10T10:57:41.943Z,20.00
2017-05-10T11:00:10.340Z,19.90
2017-05-10T11:02:38.627Z,18.30
2017-05-10T11:05:06.924Z,19.70
2017-05-10T11:07:35.940Z,18.60
2017-05-10T11:10:04.215Z,17.80
2017-05-10T11:12:32.563Z,18.00
2017-05-10T11:15:00.843Z,17.10
2017-05-10T11:17:29.180Z,18.50
2017-05-10T11:19:57.460Z,17.80
2017-05-10T11:22:25.752Z,19.10
2017-05-10T11:24:54.103Z,18.30
2017-05-10T11:27:23.052Z,18.10
2017-05-10T11:29:52.059Z,17.10
2017-05-10T11:32:20.348Z,18.70
2017-05-10T11:34:48.619Z,17.40
2017-05-10T11:37:16.910Z,17.70
2017-05-10T11:39:45.178Z,18.40
2017-05-10T11:42:13.483Z,19.60
2017-05-10T11:44:41.768Z,20.60
2017-05-10T11:47:10.123Z,20.40
2017-05-10T11:49:38.499Z,20.80
2017-05-10T11:52:06.772Z,20.60
2017-05-10T11:54:35.060Z,22.50
2017-05-10T11:57:03.332Z,22.30
2017-05-10T11:59:31.623Z,22.20
2017-05-10T12:01:59.984Z,20.40
2017-05-10T12:04:28.292Z,20.70
2017-05-10T12:06:56.635Z,20.50
2017-05-10T12:09:24.903Z,21.60
2017-05-10T12:11:53.187Z,21.20
2017-05-10T12:14:21.875Z,21.80
2017-05-10T12:16:50.977Z,23.10
2017-05-10T12:19:19.249Z,22.90
2017-05-10T12:21:47.623Z,25.10
2017-05-10T12:24:15.897Z,26.20
2017-05-10T12:26:44.281Z,26.50
2017-05-10T12:29:12.575Z,25.00
2017-05-10T12:31:40.884Z,25.90
2017-05-10T12:34:10.684Z,27.00
2017-05-10T12:36:39.737Z,29.00
2017-05-10T12:39:08.026Z,29.60
2017-05-10T12:41:36.387Z,28.80
2017-05-10T12:44:05.051Z,29.50
2017-05-10T12:46:33.331Z,30.40
2017-05-10T12:49:01.620Z,28.90
2017-05-10T12:51:29.892Z,29.20
2017-05-10T12:53:58.183Z,31.70
2017-05-10T12:56:26.456Z,30.00
2017-05-10T12:58:54.747Z,29.70
2017-05-10T13:01:23.027Z,30.00
2017-05-10T13:03:51.331Z,30.10
2017-05-10T13:06:20.348Z,30.60
2017-05-10T13:08:48.623Z,30.60
2017-05-10T13:11:16.906Z,30.40
2017-05-10T13:13:45.176Z,30.10
2017-05-10T13:16:13.463Z,32.20
2017-05-10T13:18:41.735Z,30.60
2017-05-10T13:21:10.136Z,30.00
2017-05-10T13:23:38.407Z,29.70
2017-05-10T13:26:06.699Z,32.60
2017-05-10T13:28:35.060Z,31.30
2017-05-10T13:31:03.439Z,30.80
2017-05-10T13:33:31.728Z,32.30
2017-05-10T13:36:00.007Z,32.50
2017-05-10T13:38:28.375Z,30.80
2017-05-10T13:40:56.744Z,34.10
2017-05-10T13:43:25.032Z,32.70
2017-05-10T13:45:53.400Z,33.00
2017-05-10T13:48:21.692Z,30.30
2017-05-10T13:50:50.051Z,33.50
2017-05-10T13:53:18.350Z,31.10
2017-05-10T13:55:46.880Z,30.80
2017-05-10T13:58:15.187Z,29.40
2017-05-10T14:00:43.475Z,28.50
2017-05-10T14:03:11.747Z,28.40
2017-05-10T14:05:40.117Z,26.40
2017-05-10T14:08:08.391Z,25.10
2017-05-10T14:10:36.702Z,21.90
2017-05-10T14:13:04.979Z,20.00
2017-05-10T14:15:33.331Z,19.90
2017-05-10T14:18:01.623Z,19.30
2017-05-10T14:20:29.980Z,18.70
2017-05-10T14:22:58.271Z,18.50
2017-05-10T14:25:26.547Z,17.00
2017-05-10T14:27:54.840Z,16.60
2017-05-10T14:30:23.188Z,16.30
2017-05-10T14:32:51.479Z,15.10
2017-05-10T14:35:19.751Z,15.60
2017-05-10T14:37:48.039Z,14.80
2017-05-10T14:40:16.312Z,14.10
2017-05-10T14:42:44.619Z,13.70
2017-05-10T14:45:13.636Z,13.40
2017-05-10T14:47:41.911Z,13.20
2017-05-10T14:50:10.679Z,13.90
2017-05-10T14:52:38.997Z,13.90
2017-05-10T14:55:07.291Z,13.30
2017-05-10T14:57:35.571Z,13.20
2017-05-10T15:00:03.863Z,13.20
2017-05-10T15:02:32.880Z,12.70
2017-05-10T15:05:01.156Z,13.20
2017-05-10T15:07:29.451Z,12.50
2017-05-10T15:09:58.207Z,12.90
2017-05-10T15:12:27.247Z,12.10
2017-05-10T15:14:55.628Z,12.70
2017-05-10T15:17:23.921Z,12.20
2017-05-10T15:19:52.203Z,11.80
2017-05-10T15:22:20.496Z,12.40
2017-05-10T15:24:48.831Z,12.80
2017-05-10T15:27:17.123Z,12.70
2017-05-10T15:29:45.399Z,12.30
2017-05-10T15:32:14.071Z,12.80
2017-05-10T15:34:42.344Z,12.50
2017-05-10T15:37:10.639Z,12.40
2017-05-10T15:39:38.915Z,12.10
2017-05-10T15:42:07.227Z,12.90
2017-05-10T15:44:36.239Z,12.60
2017-05-10T15:47:04.518Z,12.20
2017-05-10T15:49:32.803Z,12.30
2017-05-10T15:52:01.076Z,12.30
2017-05-10T15:54:29.399Z,12.90
2017-05-10T15:56:57.743Z,13.30
2017-05-10T15:59:26.122Z,14.50
2017-05-10T16:01:54.395Z,15.70
2017-05-10T16:04:22.703Z,17.30
2017-05-10T16:06:50.978Z,18.00
2017-05-10T16:09:19.255Z,19.30
2017-05-10T16:11:47.550Z,19.80
2017-05-10T16:14:16.599Z,21.10
2017-05-10T16:16:44.976Z,21.50
2017-05-10T16:19:13.251Z,21.80
2017-05-10T16:21:41.543Z,22.40
2017-05-10T16:24:09.903Z,23.40
2017-05-10T16:26:38.283Z,24.00
2017-05-10T16:29:06.559Z,24.30
2017-05-10T16:31:34.832Z,24.60
2017-05-10T16:34:03.124Z,24.70
2017-05-10T16:36:31.490Z,25.60
2017-05-10T16:38:59.783Z,25.00
2017-05-10T16:41:28.055Z,25.30
2017-05-10T16:43:56.347Z,25.30
2017-05-10T16:46:24.618Z,26.00
2017-05-10T16:48:52.907Z,26.10
2017-05-10T16:51:21.964Z,26.10
2017-05-10T16:53:50.269Z,26.70
2017-05-10T16:56:18.604Z,25.80
2017-05-10T16:58:46.878Z,26.90
2017-05-10T17:01:15.166Z,26.70
2017-05-10T17:03:43.440Z,27.20
2017-05-10T17:06:11.740Z,26.90
2017-05-10T17:08:40.033Z,27.30
2017-05-10T17:11:08.991Z,26.90
2017-05-10T17:13:37.359Z,27.50
2017-05-10T17:16:05.773Z,27.50
2017-05-10T17:18:34.334Z,28.00
2017-05-10T17:21:03.022Z,28.30
2017-05-10T17:23:32.523Z,28.30
2017-05-10T17:26:01.311Z,28.50
2017-05-10T17:28:30.815Z,28.20
2017-05-10T17:31:00.934Z,28.60
2017-05-10T17:33:30.346Z,29.00
2017-05-10T17:35:59.124Z,29.10
2017-05-10T17:38:28.629Z,28.90
2017-05-10T17:40:58.135Z,28.90
2017-05-10T17:43:27.637Z,29.20
2017-05-10T17:45:57.142Z,29.40
2017-05-10T17:48:26.647Z,29.10
2017-05-10T17:50:56.152Z,29.10
2017-05-10T17:53:25.666Z,29.30
2017-05-10T17:55:54.443Z,29.70
2017-05-10T17:58:23.947Z,29.30
2017-05-10T18:00:53.453Z,29.30
2017-05-10T18:03:22.957Z,29.90
2017-05-10T18:05:52.462Z,29.80
2017-05-10T18:08:21.966Z,29.80
2017-05-10T18:10:51.471Z,29.90
2017-05-10T18:13:20.975Z,29.90
2017-05-10T18:15:50.483Z,30.00
2017-05-10T18:18:19.984Z,29.80
2017-05-10T18:20:49.489Z,30.10
2017-05-10T18:23:18.993Z,29.70
2017-05-10T18:25:48.498Z,30.10
2017-05-10T18:28:18.006Z,30.40
2017-05-10T18:30:47.509Z,30.70
2017-05-10T18:33:17.011Z,30.90
2017-05-10T18:35:46.515Z,30.80
2017-05-10T18:38:16.020Z,30.10
2017-05-10T18:40:45.524Z,30.70
2017-05-10T18:43:15.135Z,31.00
2017-05-10T18:45:44.444Z,30.20
2017-05-10T18:48:13.423Z,31.00
2017-05-10T18:50:42.927Z,30.80
2017-05-10T18:53:12.432Z,30.70
2017-05-10T18:55:41.841Z,30.60
2017-05-10T18:58:11.954Z,30.90
2017-05-10T19:00:41.458Z,31.40
2017-05-10T19:03:10.965Z,31.30
2017-05-10T19:05:40.876Z,32.70
2017-05-10T19:08:10.381Z,34.10
2017-05-10T19:10:39.886Z,34.90
2017-05-10T19:13:09.391Z,35.60
2017-05-10T19:15:38.484Z,36.20
2017-05-10T19:18:06.775Z,36.50
2017-05-10T19:20:35.811Z,37.90
2017-05-10T19:23:04.102Z,37.80
2017-05-10T19:25:32.375Z,38.80
2017-05-10T19:28:00.671Z,38.70
2017-05-10T19:30:29.028Z,38.30
2017-05-10T19:32:57.319Z,38.70
2017-05-10T19:35:25.943Z,39.70
2017-05-10T19:37:54.231Z,40.60
2017-05-10T19:40:22.503Z,41.70
2017-05-10T19:42:50.816Z,41.90
2017-05-10T19:45:19.091Z,41.30
2017-05-10T19:47:47.365Z,40.50
2017-05-10T19:50:15.651Z,42.30
2017-05-10T19:52:43.944Z,41.10
2017-05-10T19:55:12.236Z,41.80
2017-05-10T19:57:40.519Z,42.50
2017-05-10T20:00:09.194Z,42.00
2017-05-10T20:02:37.467Z,43.50
2017-05-10T20:05:05.768Z,43.50
2017-05-10T20:07:34.117Z,43.90
2017-05-10T20:10:02.413Z,44.00
2017-05-10T20:12:31.591Z,43.30
2017-05-10T20:14:59.895Z,43.80
2017-05-10T20:17:28.167Z,43.50
2017-05-10T20:19:56.516Z,44.00
2017-05-10T20:22:24.810Z,44.00
2017-05-10T20:24:53.839Z,44.60
2017-05-10T20:27:22.871Z,44.60
2017-05-10T20:29:51.144Z,44.00
2017-05-10T20:32:19.441Z,44.10
2017-05-10T20:34:48.280Z,45.30
2017-05-10T20:37:16.572Z,44.00
2017-05-10T20:39:44.852Z,44.20
2017-05-10T20:42:13.143Z,45.40
2017-05-10T20:44:41.416Z,45.60
2017-05-10T20:47:09.704Z,45.60
2017-05-10T20:49:37.979Z,45.00
2017-05-10T20:52:06.358Z,45.80
2017-05-10T20:54:34.653Z,46.30
2017-05-10T20:57:02.944Z,46.90
2017-05-10T20:59:31.230Z,45.80
2017-05-10T21:02:00.242Z,46.10
2017-05-10T21:04:28.531Z,46.30
2017-05-10T21:06:56.805Z,46.00
2017-05-10T21:09:25.100Z,46.60
2017-05-10T21:11:53.376Z,46.40
2017-05-10T21:14:21.671Z,46.10
2017-05-10T21:16:49.943Z,47.30
2017-05-10T21:19:18.308Z,46.50
2017-05-10T21:21:46.586Z,48.10
2017-05-10T21:24:15.059Z,47.70
2017-05-10T21:26:43.441Z,48.10
2017-05-10T21:29:11.725Z,47.90
2017-05-10T21:31:40.090Z,47.30
2017-05-10T21:34:08.363Z,48.70
2017-05-10T21:36:36.650Z,49.20
2017-05-10T21:39:04.927Z,49.30
2017-05-10T21:41:33.211Z,49.80
2017-05-10T21:44:01.483Z,50.10
2017-05-10T21:46:29.785Z,49.40
2017-05-10T21:48:58.055Z,49.20
2017-05-10T21:51:26.399Z,48.90
2017-05-10T21:53:54.688Z,49.40
2017-05-10T21:56:22.959Z,50.50
2017-05-10T21:58:51.248Z,50.30
2017-05-10T22:01:19.715Z,50.10
2017-05-10T22:03:48.027Z,49.90
2017-05-10T22:06:17.043Z,51.00
2017-05-10T22:08:45.339Z,50.90
2017-05-10T22:11:13.610Z,51.40
2017-05-10T22:13:41.911Z,51.70
2017-05-10T22:16:10.184Z,51.10
2017-05-10T22:18:38.680Z,51.50
2017-05-10T22:21:06.971Z,51.50
2017-05-10T22:23:35.240Z,51.70
2017-05-10T22:26:03.579Z,51.80
2017-05-10T22:28:31.851Z,51.80
2017-05-10T22:31:00.140Z,52.50
2017-05-10T22:33:28.418Z,52.40
2017-05-10T22:35:56.728Z,52.70
2017-05-10T22:38:25.072Z,52.30
2017-05-10T22:40:53.347Z,52.80
2017-05-10T22:43:21.718Z,52.60
2017-05-10T22:45:49.990Z,52.40
2017-05-10T22:48:18.382Z,53.20
2017-05-10T22:50:46.677Z,53.70
2017-05-10T22:53:14.968Z,52.50
2017-05-10T22:55:43.240Z,53.00
2017-05-10T22:58:11.539Z,53.60
2017-05-10T23:00:40.551Z,53.60
2017-05-10T23:03:08.829Z,53.80
2017-05-10T23:05:37.120Z,54.10
2017-05-10T23:08:05.403Z,54.00
2017-05-10T23:10:33.695Z,54.60
2017-05-10T23:13:01.971Z,54.30
2017-05-10T23:15:30.258Z,54.50
2017-05-10T23:17:58.532Z,54.90
2017-05-10T23:20:26.884Z,53.80
2017-05-10T23:22:55.159Z,52.30
2017-05-10T23:25:23.724Z,53.90
2017-05-10T23:27:51.999Z,53.60
2017-05-10T23:30:20.276Z,52.70
2017-05-10T23:32:48.775Z,54.00
2017-05-10T23:35:17.047Z,53.30
2017-05-10T23:37:45.437Z,52.60
2017-05-10T23:40:13.712Z,53.80
2017-05-10T23:42:42.084Z,54.10
2017-05-10T23:45:10.357Z,54.10
2017-05-10T23:47:38.659Z,54.40
2017-05-10T23:50:06.983Z,54.70
2017-05-10T23:52:35.699Z,54.10
2017-05-10T23:55:03.975Z,53.40
2017-05-10T23:57:32.264Z,54.60
